createdAt,value
2023-04-10T00:01:54.411Z,55.40
2023-04-10T00:05:06.803Z,59.90
2023-04-10T00:08:19.060Z,57.13
2023-04-10T00:11:32.062Z,57.65
2023-04-10T00:14:44.244Z,54.50
2023-04-10T00:17:56.246Z,57.33
2023-04-10T00:21:11.099Z,59.25
2023-04-10T00:24:23.097Z,52.73
2023-04-10T00:27:35.146Z,58.25
2023-04-10T00:30:47.366Z,55.95
2023-04-10T00:33:59.484Z,57.55
2023-04-10T00:37:11.931Z,63.20
2023-04-10T00:40:24.141Z,62.70
2023-04-10T00:43:37.118Z,61.90
2023-04-10T00:46:49.534Z,63.73
2023-04-10T00:50:02.027Z,62.83
2023-04-10T00:53:14.322Z,67.40
2023-04-10T00:56:29.779Z,61.95
2023-04-10T00:59:42.400Z,60.70
2023-04-10T01:02:56.185Z,65.50
2023-04-10T01:06:16.475Z,69.23
2023-04-10T01:09:43.910Z,63.85
2023-04-10T01:16:23.020Z,65.25
2023-04-10T01:19:47.030Z,70.38
2023-04-10T01:23:18.030Z,72.53
2023-04-10T01:26:44.577Z,70.48
2023-04-10T01:30:01.147Z,69.73
2023-04-10T01:33:17.798Z,70.98
2023-04-10T01:36:35.047Z,74.53
2023-04-10T01:39:48.797Z,76.90
2023-04-10T01:43:05.355Z,73.58
2023-04-10T01:46:20.240Z,78.85
2023-04-10T01:49:34.812Z,75.55
2023-04-10T01:52:50.027Z,78.95
2023-04-10T01:56:07.344Z,74.60
2023-04-10T01:59:21.883Z,76.78
2023-04-10T02:02:38.316Z,75.75
2023-04-10T02:09:15.540Z,79.20
2023-04-10T02:12:32.981Z,85.22
2023-04-10T02:15:48.793Z,81.38
2023-04-10T02:19:03.780Z,85.73
2023-04-10T02:22:16.374Z,85.03
2023-04-10T02:25:28.437Z,85.18
2023-04-10T02:28:40.794Z,88.20
2023-04-10T02:31:53.586Z,88.78
2023-04-10T02:35:06.259Z,90.22
2023-04-10T02:38:18.509Z,90.08
2023-04-10T02:41:30.666Z,89.60
2023-04-10T02:44:43.672Z,86.85
2023-04-10T02:47:56.582Z,81.85
2023-04-10T02:51:09.144Z,89.95
2023-04-10T02:54:22.816Z,91.75
2023-04-10T02:57:34.999Z,92.05
2023-04-10T03:00:47.373Z,91.43
2023-04-10T03:04:03.199Z,93.78
2023-04-10T03:07:17.749Z,94.45
2023-04-10T03:10:30.030Z,97.58
2023-04-10T03:13:42.212Z,96.38
2023-04-10T03:16:54.664Z,97.90
2023-04-10T03:20:07.182Z,95.78
2023-04-10T03:23:20.121Z,94.48
2023-04-10T03:26:32.368Z,97.00
2023-04-10T03:29:45.035Z,94.60
2023-04-10T03:32:57.463Z,100.88
2023-04-10T03:36:10.520Z,98.75
2023-04-10T03:39:23.066Z,95.28
2023-04-10T03:42:35.257Z,103.63
2023-04-10T03:45:48.179Z,99.88
2023-04-10T03:49:01.096Z,106.90
2023-04-10T03:52:14.580Z,107.13
2023-04-10T03:55:27.199Z,106.25
2023-04-10T03:58:40.425Z,108.30
2023-04-10T04:01:53.517Z,101.53
2023-04-10T04:05:06.142Z,100.83
2023-04-10T04:08:28.971Z,99.38
2023-04-10T04:11:46.241Z,97.90
2023-04-10T04:15:17.335Z,100.10
2023-04-10T04:18:34.100Z,94.73
2023-04-10T04:22:04.731Z,89.20
2023-04-10T04:25:19.964Z,88.73
2023-04-10T04:28:39.757Z,99.80
2023-04-10T04:32:10.933Z,100.43
2023-04-10T04:35:41.519Z,96.95
2023-04-10T04:39:04.546Z,101.53
2023-04-10T04:42:18.504Z,104.23
2023-04-10T04:45:32.805Z,103.58
2023-04-10T04:48:53.198Z,107.05
2023-04-10T04:52:09.424Z,105.60
2023-04-10T04:55:23.688Z,106.73
2023-04-10T04:58:40.612Z,103.50
2023-04-10T05:05:11.596Z,116.93
2023-04-10T05:08:28.711Z,111.05
2023-04-10T05:11:42.982Z,111.33
2023-04-10T05:14:59.888Z,118.10
2023-04-10T05:18:14.383Z,119.25
2023-04-10T05:21:28.802Z,114.68
2023-04-10T05:24:48.964Z,117.00
2023-04-10T05:28:03.763Z,132.25
2023-04-10T05:31:34.471Z,110.83
2023-04-10T05:34:57.373Z,121.33
2023-04-10T05:38:17.867Z,119.48
2023-04-10T05:41:37.806Z,107.58
2023-04-10T05:45:04.256Z,120.63
2023-04-10T05:48:36.826Z,113.85
2023-04-10T05:52:02.997Z,124.20
2023-04-10T05:55:17.941Z,97.93
2023-04-10T05:58:41.032Z,103.98
2023-04-10T06:02:04.343Z,99.68
2023-04-10T06:05:17.050Z,91.38
2023-04-10T06:08:30.152Z,101.38
2023-04-10T06:11:42.426Z,95.05
2023-04-10T06:14:55.368Z,101.70
2023-04-10T06:18:07.810Z,86.50
2023-04-10T06:21:21.775Z,81.47
2023-04-10T06:24:33.799Z,83.33
2023-04-10T06:27:46.817Z,78.05
2023-04-10T06:30:59.175Z,80.92
2023-04-10T06:34:13.142Z,70.53
2023-04-10T06:37:34.068Z,75.65
2023-04-10T06:40:48.882Z,80.40
2023-04-10T06:44:02.606Z,76.85
2023-04-10T06:47:17.318Z,75.28
2023-04-10T06:50:30.234Z,70.68
2023-04-10T06:53:43.643Z,73.23
2023-04-10T06:56:57.700Z,75.50
2023-04-10T07:00:10.958Z,74.80
2023-04-10T07:03:23.040Z,77.95
2023-04-10T07:06:36.287Z,73.10
2023-04-10T07:09:48.556Z,74.10
2023-04-10T07:13:01.578Z,71.48
2023-04-10T07:16:17.252Z,72.18
2023-04-10T07:19:30.309Z,66.45
2023-04-10T07:22:42.607Z,70.35
2023-04-10T07:25:54.892Z,70.38
2023-04-10T07:29:07.131Z,73.75
2023-04-10T07:32:19.465Z,72.85
2023-04-10T07:35:32.260Z,73.15
2023-04-10T07:38:45.643Z,81.28
2023-04-10T07:41:59.254Z,79.20
2023-04-10T07:45:13.636Z,80.35
2023-04-10T07:48:26.200Z,81.95
2023-04-10T07:51:38.988Z,81.63
2023-04-10T07:54:52.079Z,86.25
2023-04-10T07:58:05.048Z,87.20
2023-04-10T08:01:17.842Z,85.98
2023-04-10T08:04:30.658Z,76.35
2023-04-10T08:07:43.085Z,83.15
2023-04-10T08:10:55.984Z,77.50
2023-04-10T08:14:10.365Z,74.78
2023-04-10T08:17:22.510Z,79.08
2023-04-10T08:20:37.284Z,79.13
2023-04-10T08:23:51.589Z,80.43
2023-04-10T08:27:03.669Z,84.08
2023-04-10T08:30:18.040Z,76.40
2023-04-10T08:33:30.276Z,76.75
2023-04-10T08:36:42.591Z,85.43
2023-04-10T08:39:54.972Z,78.15
2023-04-10T08:43:07.692Z,83.75
2023-04-10T08:46:20.354Z,94.23
2023-04-10T08:49:39.838Z,94.75
2023-04-10T08:52:56.335Z,96.53
2023-04-10T08:56:12.100Z,96.03
2023-04-10T08:59:25.568Z,84.73
2023-04-10T09:02:40.038Z,91.53
2023-04-10T09:05:52.636Z,95.20
2023-04-10T09:09:04.760Z,91.35
2023-04-10T09:12:18.458Z,98.50
2023-04-10T09:15:31.004Z,97.40
2023-04-10T09:18:55.942Z,94.35
2023-04-10T09:22:08.023Z,97.28
2023-04-10T09:25:36.500Z,92.70
2023-04-10T09:29:06.828Z,98.05
2023-04-10T09:32:21.264Z,95.65
2023-04-10T09:35:43.277Z,96.83
2023-04-10T09:39:00.992Z,102.73
2023-04-10T09:42:14.557Z,106.80
2023-04-10T09:45:27.439Z,93.38
2023-04-10T09:48:39.890Z,106.65
2023-04-10T09:51:52.478Z,112.03
2023-04-10T09:55:07.855Z,111.50
2023-04-10T09:58:21.924Z,108.40
2023-04-10T10:01:35.241Z,106.18
2023-04-10T10:04:51.650Z,117.75
2023-04-10T10:08:05.299Z,107.10
2023-04-10T10:11:19.933Z,113.05
2023-04-10T10:14:37.144Z,110.48
2023-04-10T10:17:58.244Z,114.65
2023-04-10T10:21:11.617Z,115.83
2023-04-10T10:24:26.402Z,124.63
2023-04-10T10:27:42.388Z,124.90
2023-04-10T10:30:55.084Z,114.75
2023-04-10T10:34:09.942Z,111.33
2023-04-10T10:37:23.678Z,121.45
2023-04-10T10:40:43.569Z,122.83
2023-04-10T10:44:04.012Z,116.20
2023-04-10T10:47:24.447Z,119.80
2023-04-10T10:50:59.572Z,127.00
2023-04-10T10:54:27.486Z,116.40
2023-04-10T10:57:57.502Z,116.93
2023-04-10T11:01:26.665Z,101.78
2023-04-10T11:04:55.631Z,115.28
2023-04-10T11:08:17.336Z,117.00
2023-04-10T11:11:30.904Z,110.43
2023-04-10T11:14:44.335Z,117.83
2023-04-10T11:17:59.149Z,110.20
2023-04-10T11:21:19.332Z,99.83
2023-04-10T11:24:33.207Z,102.78
2023-04-10T11:27:53.538Z,103.65
2023-04-10T11:31:20.206Z,107.68
2023-04-10T11:34:33.425Z,115.13
2023-04-10T11:37:45.825Z,108.53
2023-04-10T11:41:10.654Z,105.40
2023-04-10T11:44:26.677Z,101.48
2023-04-10T11:47:39.272Z,99.65
2023-04-10T11:50:51.592Z,97.48
2023-04-10T11:54:17.630Z,97.90
2023-04-10T11:57:34.172Z,96.30
2023-04-10T12:00:46.190Z,100.15
2023-04-10T12:03:58.668Z,101.80
2023-04-10T12:07:11.334Z,90.13
2023-04-10T12:10:23.777Z,88.68
2023-04-10T12:13:37.945Z,86.03
2023-04-10T12:16:50.921Z,86.93
2023-04-10T12:20:04.288Z,89.53
2023-04-10T12:23:17.251Z,94.60
2023-04-10T12:26:29.659Z,84.05
2023-04-10T12:29:41.994Z,78.75
2023-04-10T12:33:02.406Z,82.83
2023-04-10T12:36:29.421Z,87.93
2023-04-10T12:39:42.044Z,85.15
2023-04-10T12:42:54.366Z,88.00
2023-04-10T12:46:07.825Z,78.45
2023-04-10T12:49:21.964Z,74.43
2023-04-10T12:52:34.089Z,77.48
2023-04-10T12:55:46.499Z,86.10
2023-04-10T12:59:13.613Z,83.20
2023-04-10T13:02:26.769Z,80.30
2023-04-10T13:05:39.154Z,76.98
2023-04-10T13:08:53.254Z,74.58
2023-04-10T13:12:07.313Z,83.65
2023-04-10T13:15:20.333Z,88.55
2023-04-10T13:18:32.497Z,77.80
2023-04-10T13:21:44.703Z,74.40
2023-04-10T13:24:57.007Z,81.60
2023-04-10T13:28:11.295Z,88.00
2023-04-10T13:31:23.792Z,83.25
2023-04-10T13:34:36.197Z,82.45
2023-04-10T13:37:51.982Z,76.68
2023-04-10T13:41:04.073Z,76.25
2023-04-10T13:44:16.222Z,82.55
2023-04-10T13:47:29.338Z,76.78
2023-04-10T13:50:41.616Z,74.80
2023-04-10T13:53:53.924Z,68.15
2023-04-10T13:57:06.242Z,68.50
2023-04-10T14:00:21.010Z,76.28
2023-04-10T14:03:33.519Z,75.85
2023-04-10T14:06:46.399Z,72.40
2023-04-10T14:09:58.488Z,81.13
2023-04-10T14:13:11.873Z,78.13
2023-04-10T14:16:24.113Z,74.28
2023-04-10T14:19:38.153Z,77.38
2023-04-10T14:22:50.404Z,75.13
2023-04-10T14:26:02.897Z,81.33
2023-04-10T14:29:18.120Z,75.80
2023-04-10T14:32:30.010Z,82.43
2023-04-10T14:35:42.369Z,76.58
2023-04-10T14:38:54.658Z,77.43
2023-04-10T14:42:07.119Z,69.38
2023-04-10T14:45:19.985Z,73.23
2023-04-10T14:48:32.194Z,77.58
2023-04-10T14:51:45.645Z,81.93
2023-04-10T14:54:57.841Z,87.30
2023-04-10T14:58:11.714Z,80.38
2023-04-10T15:01:24.453Z,81.20
2023-04-10T15:04:36.729Z,81.93
2023-04-10T15:07:52.024Z,78.18
2023-04-10T15:11:05.469Z,85.30
2023-04-10T15:14:17.633Z,88.60
2023-04-10T15:17:31.015Z,88.13
2023-04-10T15:20:43.370Z,87.68
2023-04-10T15:23:55.884Z,81.73
2023-04-10T15:27:08.399Z,88.05
2023-04-10T15:30:21.515Z,94.40
2023-04-10T15:33:35.793Z,87.48
2023-04-10T15:36:47.882Z,91.55
2023-04-10T15:40:00.076Z,83.30
2023-04-10T15:43:12.346Z,84.23
2023-04-10T15:46:27.383Z,83.05
2023-04-10T15:49:39.888Z,84.13
2023-04-10T15:52:52.192Z,121.50
2023-04-10T15:56:04.690Z,84.45
2023-04-10T15:59:17.024Z,84.53
2023-04-10T16:02:29.393Z,76.50
2023-04-10T16:05:42.053Z,71.23
2023-04-10T16:08:57.018Z,76.68
2023-04-10T16:12:09.822Z,82.13
2023-04-10T16:15:23.718Z,82.85
2023-04-10T16:18:36.196Z,90.28
2023-04-10T16:21:48.400Z,87.50
2023-04-10T16:28:16.501Z,89.05
2023-04-10T16:31:28.738Z,84.95
2023-04-10T16:34:41.164Z,110.25
2023-04-10T16:37:54.095Z,99.00
2023-04-10T16:41:10.261Z,79.08
2023-04-10T16:44:22.468Z,81.50
2023-04-10T16:47:34.880Z,88.20
2023-04-10T16:50:47.183Z,80.58
2023-04-10T16:53:59.728Z,83.18
2023-04-10T16:57:12.305Z,83.10
2023-04-10T17:00:26.042Z,81.28
2023-04-10T17:03:39.697Z,80.03
2023-04-10T17:06:51.888Z,79.80
2023-04-10T17:10:04.205Z,79.45
2023-04-10T17:13:17.374Z,74.83
2023-04-10T17:16:30.701Z,76.68
2023-04-10T17:19:43.101Z,74.83
2023-04-10T17:22:55.502Z,67.88
2023-04-10T17:26:08.027Z,71.73
2023-04-10T17:29:20.611Z,67.80
2023-04-10T17:32:32.948Z,65.20
2023-04-10T17:35:46.302Z,63.88
2023-04-10T17:38:59.758Z,75.60
2023-04-10T17:42:13.955Z,74.80
2023-04-10T17:45:26.469Z,31.35
2023-04-10T17:48:39.374Z,14.43
2023-04-10T17:51:51.614Z,13.98
2023-04-10T17:55:05.459Z,9.68
2023-04-10T17:58:17.664Z,10.40
2023-04-10T18:01:31.793Z,12.40
2023-04-10T18:04:44.285Z,13.40
2023-04-10T18:07:56.535Z,18.20
2023-04-10T18:11:09.459Z,11.28
2023-04-10T18:14:21.810Z,15.65
2023-04-10T18:17:34.669Z,12.98
2023-04-10T18:20:47.051Z,42.68
2023-04-10T18:24:00.348Z,40.10
2023-04-10T18:27:12.531Z,19.60
2023-04-10T18:30:25.788Z,13.08
2023-04-10T18:33:43.435Z,8.45
2023-04-10T18:36:56.001Z,10.50
2023-04-10T18:40:16.413Z,12.08
2023-04-10T18:43:25.094Z,13.70
2023-04-10T18:46:37.638Z,13.35
2023-04-10T18:49:50.178Z,10.90
2023-04-10T18:53:02.597Z,9.98
2023-04-10T18:56:15.833Z,11.53
2023-04-10T18:59:28.042Z,10.70
2023-04-10T19:02:40.635Z,11.43
2023-04-10T19:05:52.987Z,9.28
2023-04-10T19:09:05.344Z,8.85
2023-04-10T19:12:17.721Z,10.55
2023-04-10T19:15:30.709Z,9.68
2023-04-10T19:18:43.244Z,9.90
2023-04-10T19:21:55.478Z,11.90
2023-04-10T19:25:07.632Z,9.95
2023-04-10T19:28:19.892Z,15.33
2023-04-10T19:31:32.301Z,12.50
2023-04-10T19:34:44.496Z,9.48
2023-04-10T19:37:56.710Z,15.33
2023-04-10T19:41:10.143Z,14.50
2023-04-10T19:44:22.302Z,13.40
2023-04-10T19:47:34.637Z,14.45
2023-04-10T19:50:46.864Z,10.68
2023-04-10T19:53:59.566Z,14.00
2023-04-10T19:57:11.933Z,10.88
2023-04-10T20:00:25.430Z,12.98
2023-04-10T20:03:38.841Z,12.35
2023-04-10T20:06:51.316Z,10.30
2023-04-10T20:10:03.527Z,12.80
2023-04-10T20:13:16.297Z,13.18
2023-04-10T20:16:28.520Z,17.60
2023-04-10T20:19:41.061Z,13.78
2023-04-10T20:22:53.260Z,10.13
2023-04-10T20:26:05.535Z,11.95
2023-04-10T20:29:17.686Z,11.23
2023-04-10T20:32:29.876Z,13.10
2023-04-10T20:35:42.171Z,12.23
2023-04-10T20:38:54.642Z,10.45
2023-04-10T20:42:06.947Z,11.65
2023-04-10T20:45:20.148Z,13.25
2023-04-10T20:48:32.285Z,13.75
2023-04-10T20:51:44.572Z,12.50
2023-04-10T20:54:56.696Z,12.35
2023-04-10T20:58:08.727Z,11.23
2023-04-10T21:01:20.885Z,12.65
2023-04-10T21:04:32.979Z,13.98
2023-04-10T21:07:46.003Z,14.20
2023-04-10T21:10:59.624Z,14.48
2023-04-10T21:14:11.844Z,15.25
2023-04-10T21:17:28.391Z,10.58
2023-04-10T21:20:40.697Z,12.98
2023-04-10T21:23:52.977Z,11.60
2023-04-10T21:27:05.183Z,13.23
2023-04-10T21:30:19.022Z,15.00
2023-04-10T21:33:33.187Z,13.18
2023-04-10T21:36:46.316Z,13.30
2023-04-10T21:39:58.398Z,15.38
2023-04-10T21:43:10.706Z,15.68
2023-04-10T21:46:23.070Z,12.08
2023-04-10T21:49:35.225Z,11.95
2023-04-10T21:52:47.330Z,14.00
2023-04-10T21:55:59.667Z,12.13
2023-04-10T21:59:12.052Z,12.80
2023-04-10T22:02:24.282Z,15.13
2023-04-10T22:05:37.119Z,15.20
2023-04-10T22:08:49.290Z,14.33
2023-04-10T22:12:01.601Z,16.13
2023-04-10T22:15:16.488Z,14.10
2023-04-10T22:18:28.669Z,14.23
2023-04-10T22:21:40.982Z,14.63
2023-04-10T22:24:53.088Z,13.55
2023-04-10T22:28:05.368Z,13.63
2023-04-10T22:31:23.504Z,15.13
2023-04-10T22:34:36.068Z,16.40
2023-04-10T22:37:48.623Z,13.93
2023-04-10T22:41:01.343Z,14.30
2023-04-10T22:44:13.625Z,15.03
2023-04-10T22:47:27.341Z,16.00
2023-04-10T22:50:40.358Z,15.23
2023-04-10T22:53:52.328Z,15.03
2023-04-10T22:57:06.223Z,16.80
2023-04-10T23:00:20.819Z,14.13
2023-04-10T23:03:33.061Z,16.68
2023-04-10T23:06:45.374Z,12.50
2023-04-10T23:09:57.501Z,14.55
2023-04-10T23:13:09.551Z,12.05
2023-04-10T23:16:21.879Z,13.00
2023-04-10T23:19:34.126Z,12.78
2023-04-10T23:22:46.231Z,13.05
2023-04-10T23:26:06.619Z,12.08
2023-04-10T23:29:18.803Z,11.35
2023-04-10T23:32:30.983Z,11.43
2023-04-10T23:35:43.321Z,13.23
2023-04-10T23:38:55.681Z,11.63
2023-04-10T23:42:08.884Z,12.60
2023-04-10T23:45:21.086Z,12.93
2023-04-10T23:48:33.192Z,13.50
2023-04-10T23:51:45.356Z,12.00
2023-04-10T23:54:57.540Z,10.73
2023-04-10T23:58:10.042Z,17.28
